Weather at Wick Airport

Public forecast

Using degrees Celsius for public forecast. Weather courtesy of forecast.io.

Current aviation weather report (METAR) for Wick Airport

Retrieved 2020/11/24 16:20 UTC (8 minutes ago):

EGPC 241620Z 29004KT 8000 -RA FEW008 BKN037 07/06 Q0998

Closest aviation forecast (TAF) to Wick Airport

Closest forecast is RAF Lossiemouth, 45.9 nm (85.0 km) S. Retrieved 2020/11/24 15:58 UTC (30 minutes ago):

TAF EGQS 241351Z 2415/2509 VRB03KT 9999 FEW018 BKN030 TEMPO 2415/2419 6000 RA -RADZ BKN018 PROB30 TEMPO 2415/2417 3000 RADZ BR SCT006 BKN010